< Typhoon 199103 1991 Season Typhoon 199105 >
Typhoon 199104 (WALT)
General InformationTrack Information on Google MapsDetailed Wind InformationList of All Images || Disaster Info.ResourceGoogle EarthGE AnimationAtom FeedGeoJSON
Detalied Best Track (Time Zone = UTC)
Year Month Day Hour Lat. Long. Pressure (hPa) Wind (kt) Class Image Chart
1991 5 6 00 6.5 151.5 1004 0 2 Image Chart
1991 5 6 06 6.7 151.3 1002 0 2 Image Chart
1991 5 6 12 7.0 151.0 1002 0 2 Image Chart
1991 5 6 18 7.5 150.8 1002 0 2 Image Chart
1991 5 7 00 8.0 150.5 1000 35 3 Image Chart
1991 5 7 06 8.4 150.2 998 35 3 Image Chart
1991 5 7 12 8.7 149.7 996 35 3 Image Chart
1991 5 7 18 8.9 149.2 994 35 3 Image Chart
1991 5 8 00 9.1 148.6 990 45 3 Image Chart
1991 5 8 06 9.4 147.8 985 50 4 Image Chart
1991 5 8 12 9.7 147.2 980 55 4 Image Chart
1991 5 8 18 10.0 146.7 975 60 4 Image Chart
1991 5 9 00 10.5 146.0 970 65 5 Image Chart
1991 5 9 06 11.0 145.1 960 75 5 Image Chart
1991 5 9 12 11.3 144.2 950 80 5 Image Chart
1991 5 9 18 11.6 143.2 945 80 5 Image Chart
1991 5 10 00 11.9 142.1 935 90 5 Image Chart
1991 5 10 06 12.1 140.9 925 95 5 Image Chart
1991 5 10 12 12.4 139.7 925 95 5 Image Chart
1991 5 10 18 12.6 138.4 925 95 5 Image Chart
1991 5 11 00 12.9 137.0 925 95 5 Image Chart
1991 5 11 06 13.3 135.6 925 95 5 Image Chart
1991 5 11 12 13.7 134.1 925 95 5 Image Chart
1991 5 11 18 14.0 132.8 925 95 5 Image Chart
1991 5 12 00 14.4 131.6 920 100 5 Image Chart
1991 5 12 06 14.8 130.6 915 100 5 Image Chart
1991 5 12 12 15.2 129.6 915 100 5 Image Chart
1991 5 12 18 15.6 128.5 915 100 5 Image Chart
1991 5 13 00 15.9 127.8 915 100 5 Image Chart
1991 5 13 06 16.3 127.1 915 100 5 Image Chart
1991 5 13 12 16.7 126.4 920 100 5 Image Chart
1991 5 13 18 17.2 125.8 925 95 5 Image Chart
1991 5 14 00 17.7 125.3 935 90 5 Image Chart
1991 5 14 06 18.2 125.0 935 90 5 Image Chart
1991 5 14 12 19.0 124.8 940 85 5 Image Chart
1991 5 14 18 19.7 124.6 950 80 5 Image Chart
1991 5 15 00 20.5 124.6 950 80 5 Image Chart
1991 5 15 06 21.3 124.9 955 80 5 Image Chart
1991 5 15 09 21.7 125.3 960 75 5 Image Chart
1991 5 15 12 22.3 126.0 960 75 5 Image Chart
1991 5 15 15 22.9 126.5 965 70 5 Image Chart
1991 5 15 18 23.4 126.9 965 70 5 Image Chart
1991 5 15 21 23.9 127.4 970 65 5 Image Chart
1991 5 16 00 24.3 128.3 975 60 4 Image Chart
1991 5 16 03 24.7 129.2 975 60 4 Image Chart
1991 5 16 06 25.1 130.4 975 60 4 Image Chart
1991 5 16 09 25.7 131.8 980 60 4 Image Chart
1991 5 16 12 26.4 133.9 985 50 4 Image Chart
1991 5 16 15 27.2 135.9 985 50 4 Image Chart
1991 5 16 18 27.8 137.3 985 50 4 Image Chart
1991 5 16 21 28.8 139.2 985 50 4 Image Chart
1991 5 17 00 30.0 141.8 985 50 4 Image Chart
1991 5 17 03 32.0 145.0 990 0 6 Image Chart
1991 5 17 06 33.0 147.0 992 0 6 Image Chart
1991 5 17 12 36.0 152.0 992 0 6 Image Chart
1991 5 17 18 40.0 156.0 990 0 6 Image Chart
1991 5 18 00 45.0 158.0 984 0 6 Image Chart
1991 5 18 06 46.0 158.0 984 0 6 Image Chart
Japan Meteorological Agency Best Track Data | Correction Date : 1992-01-04
< Typhoon 199103 1991 Season Typhoon 199105 >

Help